Whitewater, MO (63785)

4:44 PM CDT on July 23, 2014 (GMT -0500)
Jackson, MO - Goose Creek at Old Cape Rd. (KMOJACKS8) Elev 535 ft | 37.38 °N, 89.66 °W | Change Station

Current weather conditions updated 16 seconds ago

Clear
Clear
81.0 °F
Feels Like 85 °F
N
5.3
Wind Variable Wind from NW

Tomorrow is forecast to be nearly the same temperature as today.

Today
High -- | Low -- °F
--% Chance of Precip.
Yesterday
High -- | Low -- °F
Precip. -- in
5:56 AM 8:14 PM
Waning Crescent, 8% visible
Pressure 29.99 in
Visibility 10.0 miles
Clouds Clear
Heat Index 85 °F
Dew Point 71 °F
Humidity 71%
Rainfall 0.83 in
Snow Depth Not available.
UV 7 out of 12
Pollen 6.30 out of 12
Air Quality Not available.
Flu Activity Not available.
METAR KCGI 232053Z 28009KT 10SM CLR 23/19 A2999 RMK AO2 SLP153 FU SW T02280194 58002

More Conditions Fewer Conditions

Pressure 29.99 in
Visibility 10.0 miles
Clouds Clear
Heat Index 85 °F
Dew Point 71 °F
Humidity 71%
Rainfall 0.83 in
Snow Depth Not available.
UV 7 out of 12
Pollen 6.30 out of 12
Air Quality Not available.
Flu Activity Not available.
METAR KCGI 232053Z 28009KT 10SM CLR 23/19 A2999 RMK AO2 SLP153 FU SW T02280194 58002

More Conditions Fewer Conditions

10-Day Weather Forecast

Almanac

Astronomy

Jul. 23, 2014 Rise Set
Actual Time 5:56 AM CDT 8:14 PM CDT
Civil Twilight 5:26 AM CDT 8:43 PM CDT
Nautical Twilight 4:50 AM CDT 9:19 PM CDT
Astronomical Twilight 4:10 AM CDT 9:59 PM CDT
Moon 3:14 AM CDT 5:43 PM CDT
Length of Visible Light 15h 16m
Length of Day
14h 17m
Tomorrow will be 1m 32s shorter.
Waning Crescent, 8% of the Moon is Illuminated
Today
Waning Crescent
Jul 26
New
Aug 3
First Quarter
Aug 10
Full
Aug 17
Last Quarter

Today's Extremes

State Highs State Lows

Community

WunderPhotos

Upload Photos

1,736,797 photos uploaded!

Nearby

Snow Depth

Station Depth Elevation
No new snow has been reported.

Earthquake Activity

City Distance Mag. Time & Date
No recent earthquake activity has been reported nearby.
Minimum magnitude displayed is 2.5.

Coastal Water Temperatures

Place Temperature
No Stations Reporting

Nearby Weather Stations

Station Location Temp. Heat Index Dew Point Humidity Wind Precip. Elev Updated Type
Jackson, MO - Goose Creek at Old Cape Rd, Jackson, MO 81.0 °F 85 °F 71 °F 71% NW  at  5.3 mph - / hr 535 ft 4:44 PM CDT Normal
Dept. of Social Mediarology, Jackson, MO 86.4 °F 92 °F 71 °F 61% NNW  at  1.7 mph - / hr 522 ft 4:42 PM CDT Normal
WeatherTop, Cape Girardeau, MO 78.4 °F 81 °F 73 °F 84% NW  at  1.0 mph 0.00 in / hr 492 ft 4:40 PM CDT Normal
MesoWest GAIL1 , McClure, IL 64 °F - - - North  at  - 0.00 in / hr 340 ft 3:00 PM CDT MADIS
MesoWest WARE1 , Cypress, IL 74 °F 72 °F - - North  at  - 0.00 in / hr 351 ft 2:45 PM CDT MADIS

Show More Stations Show Fewer Stations